CheckWX is a tool to help pilots better visualize weather data.  It is not intended as a substitute for an official pre-flight weather briefing.

07:57:50 UTC

KSJC TAF
Norman Y Mineta San Jose International Airport
San Jose, California, USA
KSJC 200521Z 2006/2106 32007KT P6SM FEW010 FM200800 15010KT P6SM SCT012 TEMPO 2008/2012 BKN012 FM201200 15010KT P6SM BKN010 FM201600 14008KT P6SM FEW010 FM202000 31012KT P6SM FEW015

Jun-20@
06:00 UTC

Jun-20 @ 06:00 UTC

Jun-20@
08:00 UTC

Jun-20 @ 08:00 UTC

KSJC 200521Z 2006/2106 32007KT P6SM FEW010
Wind
  • 320° at 7 KTS
Cloud Levels
  • Few at 1,000' AGL

Jun-20@
08:00 UTC

Jun-20 @ 08:00 UTC

Jun-20@
12:00 UTC

Jun-20 @ 12:00 UTC

FM200800 15010KT P6SM SCT012

From

From Standard forecast or significant change

Wind
  • 150° at 10 KTS
Cloud Levels
  • Scattered at 1,200' AGL

Jun-20@
08:00 UTC

Jun-20 @ 08:00 UTC

Jun-20@
12:00 UTC

Jun-20 @ 12:00 UTC

TEMPO 2008/2012 BKN012

Temporary

Temporary Changes expected for less than half the time period

Cloud Levels
  • Broken at 1,200' AGL

Jun-20@
12:00 UTC

Jun-20 @ 12:00 UTC

Jun-20@
16:00 UTC

Jun-20 @ 16:00 UTC

FM201200 15010KT P6SM BKN010

From

From Standard forecast or significant change

Wind
  • 150° at 10 KTS
Cloud Levels
  • Broken at 1,000' AGL

Jun-20@
16:00 UTC

Jun-20 @ 16:00 UTC

Jun-20@
20:00 UTC

Jun-20 @ 20:00 UTC

FM201600 14008KT P6SM FEW010

From

From Standard forecast or significant change

Wind
  • 140° at 8 KTS
Cloud Levels
  • Few at 1,000' AGL

Jun-20@
20:00 UTC

Jun-20 @ 20:00 UTC

Jun-21@
06:00 UTC

Jun-21 @ 06:00 UTC

FM202000 31012KT P6SM FEW015

From

From Standard forecast or significant change

Wind
  • 310° at 12 KTS
Cloud Levels
  • Few at 1,500' AGL